sensor_id;sensor_type;location;lat;lon;timestamp;P1;durP1;ratioP1;P2;durP2;ratioP2
34072;SDS011;20346;52.702;16.886;2023-04-16T01:32:33;8.90;;;8.00;;
34072;SDS011;20346;52.702;16.886;2023-04-16T01:35:13;10.70;;;9.80;;
34072;SDS011;20346;52.702;16.886;2023-04-16T01:43:42;13.60;;;11.40;;
34072;SDS011;20346;52.702;16.886;2023-04-16T01:46:28;12.30;;;11.20;;
34072;SDS011;20346;52.702;16.886;2023-04-16T01:52:00;14.60;;;13.00;;
34072;SDS011;20346;52.702;16.886;2023-04-16T01:57:34;14.70;;;13.20;;
34072;SDS011;20346;52.702;16.886;2023-04-16T02:00:16;14.80;;;13.40;;
34072;SDS011;20346;52.702;16.886;2023-04-16T02:02:55;15.00;;;13.60;;
34072;SDS011;20346;52.702;16.886;2023-04-16T02:05:35;15.60;;;13.70;;
34072;SDS011;20346;52.702;16.886;2023-04-16T02:19:51;15.00;;;13.50;;
34072;SDS011;20346;52.702;16.886;2023-04-16T02:22:34;15.60;;;14.20;;
34072;SDS011;20346;52.702;16.886;2023-04-16T02:25:14;15.00;;;13.60;;
34072;SDS011;20346;52.702;16.886;2023-04-16T02:27:54;14.90;;;13.60;;
34072;SDS011;20346;52.702;16.886;2023-04-16T02:30:35;14.60;;;13.20;;
34072;SDS011;20346;52.702;16.886;2023-04-16T02:39:03;15.90;;;12.90;;
34072;SDS011;20346;52.702;16.886;2023-04-16T02:41:43;14.40;;;13.20;;
34072;SDS011;20346;52.702;16.886;2023-04-16T02:44:23;16.00;;;14.30;;
34072;SDS011;20346;52.702;16.886;2023-04-16T02:47:03;16.70;;;15.00;;
34072;SDS011;20346;52.702;16.886;2023-04-16T02:52:37;17.10;;;15.20;;
34072;SDS011;20346;52.702;16.886;2023-04-16T02:55:23;18.80;;;17.00;;
34072;SDS011;20346;52.702;16.886;2023-04-16T03:03:54;20.80;;;18.60;;
34072;SDS011;20346;52.702;16.886;2023-04-16T03:06:34;22.10;;;18.20;;
34072;SDS011;20346;52.702;16.886;2023-04-16T03:09:15;21.50;;;19.00;;
34072;SDS011;20346;52.702;16.886;2023-04-16T03:11:55;22.20;;;19.60;;
34072;SDS011;20346;52.702;16.886;2023-04-16T03:17:29;22.60;;;20.30;;
34072;SDS011;20346;52.702;16.886;2023-04-16T03:20:09;23.40;;;19.20;;
34072;SDS011;20346;52.702;16.886;2023-04-16T03:22:50;21.70;;;19.50;;
34072;SDS011;20346;52.702;16.886;2023-04-16T03:25:29;20.80;;;18.70;;
34072;SDS011;20346;52.702;16.886;2023-04-16T03:28:11;19.00;;;17.00;;
34072;SDS011;20346;52.702;16.886;2023-04-16T03:30:51;20.60;;;17.30;;
34072;SDS011;20346;52.702;16.886;2023-04-16T03:33:30;19.10;;;17.10;;
34072;SDS011;20346;52.702;16.886;2023-04-16T03:36:10;18.80;;;16.80;;
34072;SDS011;20346;52.702;16.886;2023-04-16T03:41:44;18.30;;;16.60;;
34072;SDS011;20346;52.702;16.886;2023-04-16T03:44:24;18.20;;;16.30;;
34072;SDS011;20346;52.702;16.886;2023-04-16T03:47:04;17.80;;;15.90;;
34072;SDS011;20346;52.702;16.886;2023-04-16T03:52:37;17.50;;;15.70;;
34072;SDS011;20346;52.702;16.886;2023-04-16T03:55:19;17.60;;;15.80;;
34072;SDS011;20346;52.702;16.886;2023-04-16T03:57:59;16.60;;;15.00;;
34072;SDS011;20346;52.702;16.886;2023-04-16T04:00:41;16.90;;;15.10;;
34072;SDS011;20346;52.702;16.886;2023-04-16T04:03:21;16.90;;;15.20;;
34072;SDS011;20346;52.702;16.886;2023-04-16T04:06:05;17.20;;;15.50;;
34072;SDS011;20346;52.702;16.886;2023-04-16T04:08:41;16.10;;;14.00;;
34072;SDS011;20346;52.702;16.886;2023-04-16T04:11:21;15.80;;;14.20;;
34072;SDS011;20346;52.702;16.886;2023-04-16T04:14:01;15.30;;;13.90;;
34072;SDS011;20346;52.702;16.886;2023-04-16T04:16:41;17.70;;;14.40;;
34072;SDS011;20346;52.702;16.886;2023-04-16T04:19:21;14.70;;;13.20;;
34072;SDS011;20346;52.702;16.886;2023-04-16T04:22:02;15.10;;;13.70;;
34072;SDS011;20346;52.702;16.886;2023-04-16T04:30:30;14.70;;;13.30;;
34072;SDS011;20346;52.702;16.886;2023-04-16T04:36:05;15.20;;;13.60;;
34072;SDS011;20346;52.702;16.886;2023-04-16T04:38:46;15.20;;;13.80;;
34072;SDS011;20346;52.702;16.886;2023-04-16T04:41:25;15.40;;;13.90;;
34072;SDS011;20346;52.702;16.886;2023-04-16T04:47:01;15.40;;;13.30;;
34072;SDS011;20346;52.702;16.886;2023-04-16T04:49:42;16.00;;;14.50;;
34072;SDS011;20346;52.702;16.886;2023-04-16T04:52:22;16.30;;;14.70;;
34072;SDS011;20346;52.702;16.886;2023-04-16T04:55:02;14.30;;;13.00;;
34072;SDS011;20346;52.702;16.886;2023-04-16T04:57:42;15.40;;;13.50;;
34072;SDS011;20346;52.702;16.886;2023-04-16T05:00:22;15.10;;;13.70;;
34072;SDS011;20346;52.702;16.886;2023-04-16T05:03:04;16.50;;;13.50;;
34072;SDS011;20346;52.702;16.886;2023-04-16T05:08:37;13.10;;;11.80;;
34072;SDS011;20346;52.702;16.886;2023-04-16T05:11:17;13.80;;;12.20;;
34072;SDS011;20346;52.702;16.886;2023-04-16T05:13:56;12.80;;;11.60;;
34072;SDS011;20346;52.702;16.886;2023-04-16T05:16:36;15.20;;;13.50;;
34072;SDS011;20346;52.702;16.886;2023-04-16T05:19:17;12.50;;;11.40;;
34072;SDS011;20346;52.702;16.886;2023-04-16T05:21:57;11.80;;;10.60;;
34072;SDS011;20346;52.702;16.886;2023-04-16T05:24:38;12.40;;;11.30;;
34072;SDS011;20346;52.702;16.886;2023-04-16T05:27:19;14.50;;;13.10;;
34072;SDS011;20346;52.702;16.886;2023-04-16T05:29:59;16.20;;;14.50;;
34072;SDS011;20346;52.702;16.886;2023-04-16T05:32:40;13.50;;;12.30;;
34072;SDS011;20346;52.702;16.886;2023-04-16T05:35:20;11.10;;;10.10;;
34072;SDS011;20346;52.702;16.886;2023-04-16T05:40:54;11.50;;;10.50;;
34072;SDS011;20346;52.702;16.886;2023-04-16T05:43:35;11.50;;;10.20;;
34072;SDS011;20346;52.702;16.886;2023-04-16T05:46:17;10.40;;;9.40;;
34072;SDS011;20346;52.702;16.886;2023-04-16T05:48:57;10.60;;;9.70;;
34072;SDS011;20346;52.702;16.886;2023-04-16T05:51:37;9.90;;;9.10;;
34072;SDS011;20346;52.702;16.886;2023-04-16T05:54:17;11.80;;;10.70;;
34072;SDS011;20346;52.702;16.886;2023-04-16T05:56:59;10.00;;;9.20;;
34072;SDS011;20346;52.702;16.886;2023-04-16T05:59:40;9.80;;;9.00;;
34072;SDS011;20346;52.702;16.886;2023-04-16T06:05:16;10.20;;;8.90;;
34072;SDS011;20346;52.702;16.886;2023-04-16T06:07:57;9.30;;;8.50;;
34072;SDS011;20346;52.702;16.886;2023-04-16T06:10:37;10.00;;;9.10;;
34072;SDS011;20346;52.702;16.886;2023-04-16T06:13:17;9.50;;;8.80;;
34072;SDS011;20346;52.702;16.886;2023-04-16T06:15:58;10.30;;;9.40;;
34072;SDS011;20346;52.702;16.886;2023-04-16T06:24:28;8.80;;;8.00;;
34072;SDS011;20346;52.702;16.886;2023-04-16T06:27:10;11.30;;;10.20;;
34072;SDS011;20346;52.702;16.886;2023-04-16T06:29:55;10.70;;;9.50;;
34072;SDS011;20346;52.702;16.886;2023-04-16T06:32:36;10.20;;;9.40;;
34072;SDS011;20346;52.702;16.886;2023-04-16T06:35:19;10.70;;;9.80;;
34072;SDS011;20346;52.702;16.886;2023-04-16T06:46:42;11.70;;;10.50;;
34072;SDS011;20346;52.702;16.886;2023-04-16T06:49:22;12.10;;;10.90;;
34072;SDS011;20346;52.702;16.886;2023-04-16T06:52:03;12.10;;;11.10;;
34072;SDS011;20346;52.702;16.886;2023-04-16T07:00:32;14.90;;;13.10;;
34072;SDS011;20346;52.702;16.886;2023-04-16T07:03:13;12.40;;;11.20;;
34072;SDS011;20346;52.702;16.886;2023-04-16T07:05:55;13.50;;;12.20;;
34072;SDS011;20346;52.702;16.886;2023-04-16T07:28:53;11.70;;;10.60;;
34072;SDS011;20346;52.702;16.886;2023-04-16T07:46:14;12.50;;;11.40;;
34072;SDS011;20346;52.702;16.886;2023-04-16T07:48:57;11.80;;;10.90;;
34072;SDS011;20346;52.702;16.886;2023-04-16T07:51:43;12.60;;;11.50;;
34072;SDS011;20346;52.702;16.886;2023-04-16T07:57:18;12.40;;;11.20;;
34072;SDS011;20346;52.702;16.886;2023-04-16T08:08:41;14.80;;;13.40;;
34072;SDS011;20346;52.702;16.886;2023-04-16T08:23:00;15.00;;;13.30;;
34072;SDS011;20346;52.702;16.886;2023-04-16T09:06:22;15.80;;;13.80;;
34072;SDS011;20346;52.702;16.886;2023-04-16T09:12:00;14.70;;;13.30;;
34072;SDS011;20346;52.702;16.886;2023-04-16T11:33:59;23.30;;;20.90;;
34072;SDS011;20346;52.702;16.886;2023-04-16T13:00:51;26.20;;;21.90;;
34072;SDS011;20346;52.702;16.886;2023-04-16T14:30:20;30.10;;;19.20;;
34072;SDS011;20346;52.702;16.886;2023-04-16T14:38:54;30.90;;;20.10;;
34072;SDS011;20346;52.702;16.886;2023-04-16T14:41:33;30.40;;;20.30;;
34072;SDS011;20346;52.702;16.886;2023-04-16T14:44:16;32.80;;;20.40;;
34072;SDS011;20346;52.702;16.886;2023-04-16T14:46:58;34.90;;;22.30;;
34072;SDS011;20346;52.702;16.886;2023-04-16T14:58:26;39.80;;;22.10;;
34072;SDS011;20346;52.702;16.886;2023-04-16T15:01:08;32.20;;;20.80;;
34072;SDS011;20346;52.702;16.886;2023-04-16T15:03:47;29.30;;;19.50;;
34072;SDS011;20346;52.702;16.886;2023-04-16T15:06:27;25.70;;;17.60;;
34072;SDS011;20346;52.702;16.886;2023-04-16T15:09:09;31.30;;;20.50;;
34072;SDS011;20346;52.702;16.886;2023-04-16T15:37:54;24.00;;;16.10;;
34072;SDS011;20346;52.702;16.886;2023-04-16T15:40:34;22.80;;;15.90;;
34072;SDS011;20346;52.702;16.886;2023-04-16T15:43:14;25.00;;;15.70;;
34072;SDS011;20346;52.702;16.886;2023-04-16T15:45:54;25.50;;;15.70;;
34072;SDS011;20346;52.702;16.886;2023-04-16T15:48:34;25.20;;;16.70;;
34072;SDS011;20346;52.702;16.886;2023-04-16T15:51:14;22.10;;;15.50;;
34072;SDS011;20346;52.702;16.886;2023-04-16T15:53:54;23.10;;;15.00;;
34072;SDS011;20346;52.702;16.886;2023-04-16T15:56:36;22.30;;;15.30;;
34072;SDS011;20346;52.702;16.886;2023-04-16T15:59:15;20.90;;;14.90;;
34072;SDS011;20346;52.702;16.886;2023-04-16T16:01:55;21.90;;;14.00;;
34072;SDS011;20346;52.702;16.886;2023-04-16T16:04:35;26.70;;;15.50;;
34072;SDS011;20346;52.702;16.886;2023-04-16T16:07:16;21.50;;;13.60;;
34072;SDS011;20346;52.702;16.886;2023-04-16T16:09:55;24.50;;;14.70;;
34072;SDS011;20346;52.702;16.886;2023-04-16T16:12:35;24.80;;;15.50;;
34072;SDS011;20346;52.702;16.886;2023-04-16T16:15:15;24.70;;;15.40;;
34072;SDS011;20346;52.702;16.886;2023-04-16T16:17:57;24.50;;;15.90;;
34072;SDS011;20346;52.702;16.886;2023-04-16T16:20:50;27.40;;;16.70;;
34072;SDS011;20346;52.702;16.886;2023-04-16T16:23:32;30.20;;;20.10;;
34072;SDS011;20346;52.702;16.886;2023-04-16T16:26:11;26.70;;;18.50;;
34072;SDS011;20346;52.702;16.886;2023-04-16T16:28:51;24.00;;;16.30;;
34072;SDS011;20346;52.702;16.886;2023-04-16T16:31:41;30.30;;;19.40;;
34072;SDS011;20346;52.702;16.886;2023-04-16T16:34:21;27.10;;;15.80;;
34072;SDS011;20346;52.702;16.886;2023-04-16T16:39:55;32.40;;;19.00;;
34072;SDS011;20346;52.702;16.886;2023-04-16T16:42:37;39.40;;;23.30;;
34072;SDS011;20346;52.702;16.886;2023-04-16T16:45:16;26.30;;;17.50;;
34072;SDS011;20346;52.702;16.886;2023-04-16T16:47:56;28.50;;;18.80;;
34072;SDS011;20346;52.702;16.886;2023-04-16T16:50:36;29.50;;;19.10;;
34072;SDS011;20346;52.702;16.886;2023-04-16T16:53:16;24.60;;;17.60;;
34072;SDS011;20346;52.702;16.886;2023-04-16T16:55:56;25.90;;;16.90;;
34072;SDS011;20346;52.702;16.886;2023-04-16T16:58:36;26.60;;;16.50;;
34072;SDS011;20346;52.702;16.886;2023-04-16T17:01:16;25.20;;;16.80;;
34072;SDS011;20346;52.702;16.886;2023-04-16T17:03:57;26.10;;;18.30;;
34072;SDS011;20346;52.702;16.886;2023-04-16T17:06:36;30.10;;;15.70;;
34072;SDS011;20346;52.702;16.886;2023-04-16T17:09:16;20.20;;;14.30;;
34072;SDS011;20346;52.702;16.886;2023-04-16T17:11:58;18.60;;;14.40;;
34072;SDS011;20346;52.702;16.886;2023-04-16T17:17:32;18.70;;;14.20;;
34072;SDS011;20346;52.702;16.886;2023-04-16T17:20:11;21.20;;;12.30;;
34072;SDS011;20346;52.702;16.886;2023-04-16T17:22:51;19.80;;;13.90;;
34072;SDS011;20346;52.702;16.886;2023-04-16T17:25:31;18.00;;;14.20;;
34072;SDS011;20346;52.702;16.886;2023-04-16T17:28:13;21.30;;;15.20;;
34072;SDS011;20346;52.702;16.886;2023-04-16T17:30:53;22.00;;;14.30;;
34072;SDS011;20346;52.702;16.886;2023-04-16T17:45:11;17.80;;;13.90;;
34072;SDS011;20346;52.702;16.886;2023-04-16T17:59:28;24.40;;;17.00;;
34072;SDS011;20346;52.702;16.886;2023-04-16T18:02:08;28.90;;;18.00;;
34072;SDS011;20346;52.702;16.886;2023-04-16T18:04:48;29.70;;;18.90;;
34072;SDS011;20346;52.702;16.886;2023-04-16T18:07:28;27.70;;;17.60;;
34072;SDS011;20346;52.702;16.886;2023-04-16T18:10:08;25.80;;;16.60;;
34072;SDS011;20346;52.702;16.886;2023-04-16T18:12:48;24.90;;;15.50;;
34072;SDS011;20346;52.702;16.886;2023-04-16T18:15:29;27.40;;;15.60;;
34072;SDS011;20346;52.702;16.886;2023-04-16T18:21:03;22.30;;;16.00;;
34072;SDS011;20346;52.702;16.886;2023-04-16T18:23:42;22.50;;;16.30;;
34072;SDS011;20346;52.702;16.886;2023-04-16T18:26:22;24.60;;;14.80;;
34072;SDS011;20346;52.702;16.886;2023-04-16T18:29:03;24.70;;;16.20;;
34072;SDS011;20346;52.702;16.886;2023-04-16T18:31:43;26.60;;;16.60;;
34072;SDS011;20346;52.702;16.886;2023-04-16T18:34:23;26.30;;;17.60;;
34072;SDS011;20346;52.702;16.886;2023-04-16T18:37:03;22.50;;;16.10;;
34072;SDS011;20346;52.702;16.886;2023-04-16T18:39:43;21.10;;;15.60;;
34072;SDS011;20346;52.702;16.886;2023-04-16T18:42:23;24.70;;;15.70;;
34072;SDS011;20346;52.702;16.886;2023-04-16T18:45:03;17.30;;;13.90;;
34072;SDS011;20346;52.702;16.886;2023-04-16T18:47:43;22.10;;;14.00;;
34072;SDS011;20346;52.702;16.886;2023-04-16T18:50:23;18.40;;;13.20;;
34072;SDS011;20346;52.702;16.886;2023-04-16T18:53:03;20.90;;;14.30;;
34072;SDS011;20346;52.702;16.886;2023-04-16T18:55:43;26.50;;;17.00;;
34072;SDS011;20346;52.702;16.886;2023-04-16T18:58:23;19.20;;;12.90;;
34072;SDS011;20346;52.702;16.886;2023-04-16T19:01:03;17.00;;;12.50;;
34072;SDS011;20346;52.702;16.886;2023-04-16T19:03:43;18.60;;;13.00;;
34072;SDS011;20346;52.702;16.886;2023-04-16T19:06:23;19.30;;;12.20;;
34072;SDS011;20346;52.702;16.886;2023-04-16T19:09:03;20.20;;;13.70;;
34072;SDS011;20346;52.702;16.886;2023-04-16T19:14:36;19.80;;;11.80;;
34072;SDS011;20346;52.702;16.886;2023-04-16T19:17:16;17.00;;;11.00;;
34072;SDS011;20346;52.702;16.886;2023-04-16T19:19:56;13.30;;;10.60;;
34072;SDS011;20346;52.702;16.886;2023-04-16T19:22:36;18.50;;;12.80;;
34072;SDS011;20346;52.702;16.886;2023-04-16T19:28:11;18.00;;;11.40;;
34072;SDS011;20346;52.702;16.886;2023-04-16T19:30:52;15.50;;;11.10;;
34072;SDS011;20346;52.702;16.886;2023-04-16T19:33:33;17.70;;;11.60;;
34072;SDS011;20346;52.702;16.886;2023-04-16T19:48:30;17.30;;;10.30;;
34072;SDS011;20346;52.702;16.886;2023-04-16T19:57:20;17.60;;;11.20;;
34072;SDS011;20346;52.702;16.886;2023-04-16T20:00:00;17.40;;;11.00;;
34072;SDS011;20346;52.702;16.886;2023-04-16T20:02:41;15.50;;;10.80;;
34072;SDS011;20346;52.702;16.886;2023-04-16T20:05:23;13.10;;;10.30;;
34072;SDS011;20346;52.702;16.886;2023-04-16T20:08:02;15.20;;;11.10;;
34072;SDS011;20346;52.702;16.886;2023-04-16T20:13:37;17.90;;;10.80;;
34072;SDS011;20346;52.702;16.886;2023-04-16T20:16:19;17.70;;;10.70;;
34072;SDS011;20346;52.702;16.886;2023-04-16T20:18:59;16.00;;;11.40;;
34072;SDS011;20346;52.702;16.886;2023-04-16T20:21:39;15.20;;;11.10;;
34072;SDS011;20346;52.702;16.886;2023-04-16T20:24:20;14.50;;;11.70;;
34072;SDS011;20346;52.702;16.886;2023-04-16T20:27:01;17.50;;;12.10;;
34072;SDS011;20346;52.702;16.886;2023-04-16T20:29:41;17.40;;;12.60;;
34072;SDS011;20346;52.702;16.886;2023-04-16T20:32:21;19.60;;;12.80;;
34072;SDS011;20346;52.702;16.886;2023-04-16T20:35:01;17.30;;;12.60;;
34072;SDS011;20346;52.702;16.886;2023-04-16T20:37:42;15.90;;;11.90;;
34072;SDS011;20346;52.702;16.886;2023-04-16T20:40:22;18.60;;;13.00;;
34072;SDS011;20346;52.702;16.886;2023-04-16T20:43:02;16.60;;;12.80;;
34072;SDS011;20346;52.702;16.886;2023-04-16T20:45:42;14.30;;;12.50;;
34072;SDS011;20346;52.702;16.886;2023-04-16T20:48:22;17.20;;;12.70;;
34072;SDS011;20346;52.702;16.886;2023-04-16T20:51:02;17.70;;;12.20;;
34072;SDS011;20346;52.702;16.886;2023-04-16T20:53:42;15.00;;;11.70;;
34072;SDS011;20346;52.702;16.886;2023-04-16T20:56:22;13.40;;;11.20;;
34072;SDS011;20346;52.702;16.886;2023-04-16T20:59:02;14.10;;;10.40;;
34072;SDS011;20346;52.702;16.886;2023-04-16T21:01:42;14.00;;;10.60;;
34072;SDS011;20346;52.702;16.886;2023-04-16T21:04:22;13.30;;;10.30;;
34072;SDS011;20346;52.702;16.886;2023-04-16T21:07:02;15.90;;;10.50;;
34072;SDS011;20346;52.702;16.886;2023-04-16T21:09:42;12.20;;;9.80;;
34072;SDS011;20346;52.702;16.886;2023-04-16T21:12:22;14.90;;;11.00;;
34072;SDS011;20346;52.702;16.886;2023-04-16T21:15:02;14.90;;;10.90;;
34072;SDS011;20346;52.702;16.886;2023-04-16T21:17:42;12.40;;;10.20;;
34072;SDS011;20346;52.702;16.886;2023-04-16T21:20:22;13.70;;;10.10;;
34072;SDS011;20346;52.702;16.886;2023-04-16T21:23:02;11.40;;;9.90;;
34072;SDS011;20346;52.702;16.886;2023-04-16T21:25:42;12.20;;;10.60;;
34072;SDS011;20346;52.702;16.886;2023-04-16T21:28:22;11.60;;;9.40;;
34072;SDS011;20346;52.702;16.886;2023-04-16T21:31:03;12.60;;;10.50;;
34072;SDS011;20346;52.702;16.886;2023-04-16T21:33:43;13.70;;;11.00;;
34072;SDS011;20346;52.702;16.886;2023-04-16T21:36:23;13.10;;;10.10;;
34072;SDS011;20346;52.702;16.886;2023-04-16T21:39:03;13.50;;;10.10;;
34072;SDS011;20346;52.702;16.886;2023-04-16T21:41:43;11.90;;;10.50;;
34072;SDS011;20346;52.702;16.886;2023-04-16T21:44:24;11.30;;;10.00;;
34072;SDS011;20346;52.702;16.886;2023-04-16T21:47:05;14.40;;;10.10;;
34072;SDS011;20346;52.702;16.886;2023-04-16T21:49:45;10.90;;;9.20;;
34072;SDS011;20346;52.702;16.886;2023-04-16T21:52:25;12.30;;;9.90;;
34072;SDS011;20346;52.702;16.886;2023-04-16T21:55:06;13.70;;;10.10;;
34072;SDS011;20346;52.702;16.886;2023-04-16T21:57:45;13.30;;;9.90;;
34072;SDS011;20346;52.702;16.886;2023-04-16T22:00:26;12.80;;;9.30;;
34072;SDS011;20346;52.702;16.886;2023-04-16T22:03:06;11.40;;;8.20;;
34072;SDS011;20346;52.702;16.886;2023-04-16T22:05:46;9.30;;;7.80;;
34072;SDS011;20346;52.702;16.886;2023-04-16T22:08:26;9.40;;;7.90;;
34072;SDS011;20346;52.702;16.886;2023-04-16T22:11:06;7.60;;;6.70;;
34072;SDS011;20346;52.702;16.886;2023-04-16T22:13:46;7.90;;;7.10;;
34072;SDS011;20346;52.702;16.886;2023-04-16T22:16:26;9.80;;;7.90;;
34072;SDS011;20346;52.702;16.886;2023-04-16T22:19:06;9.30;;;7.10;;
34072;SDS011;20346;52.702;16.886;2023-04-16T22:21:46;9.90;;;7.70;;
34072;SDS011;20346;52.702;16.886;2023-04-16T22:24:27;8.80;;;7.80;;
34072;SDS011;20346;52.702;16.886;2023-04-16T22:27:07;12.70;;;7.70;;
34072;SDS011;20346;52.702;16.886;2023-04-16T22:29:50;11.60;;;7.60;;
34072;SDS011;20346;52.702;16.886;2023-04-16T22:32:30;8.80;;;7.50;;
34072;SDS011;20346;52.702;16.886;2023-04-16T22:35:10;11.00;;;8.10;;
34072;SDS011;20346;52.702;16.886;2023-04-16T22:37:53;11.60;;;9.20;;
34072;SDS011;20346;52.702;16.886;2023-04-16T22:40:33;13.50;;;8.10;;
34072;SDS011;20346;52.702;16.886;2023-04-16T22:43:13;11.80;;;8.60;;
34072;SDS011;20346;52.702;16.886;2023-04-16T22:46:00;12.80;;;8.90;;
34072;SDS011;20346;52.702;16.886;2023-04-16T22:48:39;10.90;;;8.80;;
34072;SDS011;20346;52.702;16.886;2023-04-16T22:51:19;11.40;;;9.20;;
34072;SDS011;20346;52.702;16.886;2023-04-16T22:53:59;11.40;;;8.50;;
34072;SDS011;20346;52.702;16.886;2023-04-16T22:56:39;12.20;;;8.70;;
34072;SDS011;20346;52.702;16.886;2023-04-16T22:59:19;12.30;;;9.40;;
34072;SDS011;20346;52.702;16.886;2023-04-16T23:01:59;10.60;;;8.90;;
34072;SDS011;20346;52.702;16.886;2023-04-16T23:04:39;11.00;;;8.70;;
34072;SDS011;20346;52.702;16.886;2023-04-16T23:07:19;11.50;;;9.10;;
34072;SDS011;20346;52.702;16.886;2023-04-16T23:09:59;10.10;;;8.30;;
34072;SDS011;20346;52.702;16.886;2023-04-16T23:12:39;10.60;;;9.00;;
34072;SDS011;20346;52.702;16.886;2023-04-16T23:15:19;11.30;;;8.10;;
34072;SDS011;20346;52.702;16.886;2023-04-16T23:17:59;10.60;;;7.30;;
34072;SDS011;20346;52.702;16.886;2023-04-16T23:20:40;9.70;;;8.60;;
34072;SDS011;20346;52.702;16.886;2023-04-16T23:23:22;9.00;;;6.70;;
34072;SDS011;20346;52.702;16.886;2023-04-16T23:26:03;13.40;;;7.30;;
34072;SDS011;20346;52.702;16.886;2023-04-16T23:28:43;9.20;;;6.40;;
34072;SDS011;20346;52.702;16.886;2023-04-16T23:31:23;11.20;;;6.70;;
34072;SDS011;20346;52.702;16.886;2023-04-16T23:34:03;8.40;;;7.00;;
34072;SDS011;20346;52.702;16.886;2023-04-16T23:36:43;7.50;;;6.60;;
34072;SDS011;20346;52.702;16.886;2023-04-16T23:39:23;8.10;;;6.20;;
34072;SDS011;20346;52.702;16.886;2023-04-16T23:42:03;8.10;;;6.40;;
34072;SDS011;20346;52.702;16.886;2023-04-16T23:44:43;8.20;;;6.60;;
34072;SDS011;20346;52.702;16.886;2023-04-16T23:47:24;7.80;;;6.30;;
34072;SDS011;20346;52.702;16.886;2023-04-16T23:50:04;8.00;;;6.90;;
34072;SDS011;20346;52.702;16.886;2023-04-16T23:52:44;8.10;;;7.10;;
34072;SDS011;20346;52.702;16.886;2023-04-16T23:55:24;9.40;;;6.90;;
34072;SDS011;20346;52.702;16.886;2023-04-16T23:58:04;9.10;;;6.40;;
